BIRK/RKV METAR and TAF weather

Enter ICAO airport designator
Station Type Date Time Source
BIRK METAR 2020/07/09 08:00 UTC NOAA

BIRK 090800Z 32008KT 9999 FEW025 BKN027 10/05 Q1013


Station Type Date Time Source
BIRK Decoded METAR 2020/07/09 08:00 UTC NOAA

Reykjavik, Iceland (BIRK) 64-08N 021-54W 61M
Jul 09, 2020 - 04:00 AM EDT / 2020.07.09 0800 UTC
Wind: from the NW (320 degrees) at 9 MPH (8 KT):0
Visibility: greater than 7 mile(s):0
Sky conditions: mostly cloudy
Temperature: 50 F (10 C)
Dew Point: 41 F (5 C)
Relative Humidity: 71%
Pressure (altimeter): 29.91 in. Hg (1013 hPa)
ob: BIRK 090800Z 32008KT 9999 FEW025 BKN027 10/05 Q1013
cycle: 8

Station Type Date Time Source
BIRK TAF 2020/07/09 09:54 UTC NOAA

TAF BIRK 090751Z 0909/1009 31010KT 9999 SCT020 BKN025 TX13/0915Z TN09/1006Z

Example: see airport list